sensor_id;sensor_type;location;lat;lon;timestamp;P1;durP1;ratioP1;P2;durP2;ratioP2
59998;SDS011;45859;51.378;6.736;2022-12-05T00:01:30;28.53;;;11.33;;
59998;SDS011;45859;51.378;6.736;2022-12-05T00:04:01;35.43;;;14.97;;
59998;SDS011;45859;51.378;6.736;2022-12-05T00:06:29;28.23;;;12.17;;
59998;SDS011;45859;51.378;6.736;2022-12-05T00:08:57;22.93;;;11.30;;
59998;SDS011;45859;51.378;6.736;2022-12-05T00:11:23;38.23;;;13.30;;
59998;SDS011;45859;51.378;6.736;2022-12-05T00:13:51;31.07;;;11.87;;
59998;SDS011;45859;51.378;6.736;2022-12-05T00:16:20;38.30;;;13.80;;
59998;SDS011;45859;51.378;6.736;2022-12-05T00:18:47;25.87;;;13.13;;
59998;SDS011;45859;51.378;6.736;2022-12-05T00:21:23;34.60;;;14.03;;
59998;SDS011;45859;51.378;6.736;2022-12-05T00:23:51;29.63;;;13.13;;
59998;SDS011;45859;51.378;6.736;2022-12-05T00:26:17;38.30;;;14.03;;
59998;SDS011;45859;51.378;6.736;2022-12-05T00:28:43;28.13;;;12.83;;
59998;SDS011;45859;51.378;6.736;2022-12-05T00:31:10;38.77;;;15.57;;
59998;SDS011;45859;51.378;6.736;2022-12-05T00:33:40;35.72;;;16.10;;
59998;SDS011;45859;51.378;6.736;2022-12-05T00:36:07;34.23;;;14.30;;
59998;SDS011;45859;51.378;6.736;2022-12-05T00:38:36;29.42;;;12.88;;
59998;SDS011;45859;51.378;6.736;2022-12-05T00:41:03;28.60;;;12.87;;
59998;SDS011;45859;51.378;6.736;2022-12-05T00:43:30;33.07;;;14.80;;
59998;SDS011;45859;51.378;6.736;2022-12-05T00:45:59;28.87;;;11.93;;
59998;SDS011;45859;51.378;6.736;2022-12-05T00:48:28;30.10;;;13.97;;
59998;SDS011;45859;51.378;6.736;2022-12-05T00:51:01;31.07;;;14.10;;
59998;SDS011;45859;51.378;6.736;2022-12-05T00:53:31;32.70;;;13.20;;
59998;SDS011;45859;51.378;6.736;2022-12-05T00:56:08;27.87;;;11.80;;
59998;SDS011;45859;51.378;6.736;2022-12-05T01:01:12;19.87;;;9.63;;
59998;SDS011;45859;51.378;6.736;2022-12-05T01:03:46;35.77;;;12.60;;
59998;SDS011;45859;51.378;6.736;2022-12-05T01:06:12;33.03;;;14.17;;
59998;SDS011;45859;51.378;6.736;2022-12-05T01:08:40;25.07;;;11.37;;
59998;SDS011;45859;51.378;6.736;2022-12-05T01:11:06;33.10;;;12.97;;
59998;SDS011;45859;51.378;6.736;2022-12-05T01:13:33;30.63;;;12.97;;
59998;SDS011;45859;51.378;6.736;2022-12-05T01:15:59;33.00;;;13.03;;
59998;SDS011;45859;51.378;6.736;2022-12-05T01:18:25;29.67;;;13.93;;
59998;SDS011;45859;51.378;6.736;2022-12-05T01:20:51;31.00;;;13.83;;
59998;SDS011;45859;51.378;6.736;2022-12-05T01:23:18;30.20;;;13.00;;
59998;SDS011;45859;51.378;6.736;2022-12-05T01:25:45;31.90;;;11.50;;
59998;SDS011;45859;51.378;6.736;2022-12-05T01:28:12;27.63;;;12.37;;
59998;SDS011;45859;51.378;6.736;2022-12-05T01:30:40;26.27;;;11.53;;
59998;SDS011;45859;51.378;6.736;2022-12-05T01:33:07;27.63;;;12.07;;
59998;SDS011;45859;51.378;6.736;2022-12-05T01:35:34;30.03;;;12.63;;
59998;SDS011;45859;51.378;6.736;2022-12-05T01:38:00;29.20;;;12.20;;
59998;SDS011;45859;51.378;6.736;2022-12-05T01:40:26;24.40;;;9.93;;
59998;SDS011;45859;51.378;6.736;2022-12-05T01:42:52;26.83;;;11.17;;
59998;SDS011;45859;51.378;6.736;2022-12-05T01:45:23;29.70;;;13.87;;
59998;SDS011;45859;51.378;6.736;2022-12-05T01:47:56;20.23;;;10.60;;
59998;SDS011;45859;51.378;6.736;2022-12-05T01:50:22;28.37;;;11.40;;
59998;SDS011;45859;51.378;6.736;2022-12-05T01:52:48;39.47;;;15.20;;
59998;SDS011;45859;51.378;6.736;2022-12-05T01:55:14;29.93;;;13.20;;
59998;SDS011;45859;51.378;6.736;2022-12-05T01:57:41;25.47;;;12.83;;
59998;SDS011;45859;51.378;6.736;2022-12-05T02:00:11;28.83;;;13.30;;
59998;SDS011;45859;51.378;6.736;2022-12-05T02:02:39;18.87;;;8.47;;
59998;SDS011;45859;51.378;6.736;2022-12-05T02:05:13;25.40;;;10.73;;
59998;SDS011;45859;51.378;6.736;2022-12-05T02:07:41;32.10;;;13.17;;
59998;SDS011;45859;51.378;6.736;2022-12-05T02:10:08;31.80;;;11.93;;
59998;SDS011;45859;51.378;6.736;2022-12-05T02:12:34;27.17;;;12.73;;
59998;SDS011;45859;51.378;6.736;2022-12-05T02:23:25;28.90;;;13.03;;
59998;SDS011;45859;51.378;6.736;2022-12-05T02:29:14;27.50;;;12.05;;
59998;SDS011;45859;51.378;6.736;2022-12-05T02:31:47;26.63;;;11.77;;
59998;SDS011;45859;51.378;6.736;2022-12-05T02:34:26;32.13;;;12.53;;
59998;SDS011;45859;51.378;6.736;2022-12-05T02:37:11;28.07;;;12.23;;
59998;SDS011;45859;51.378;6.736;2022-12-05T02:40:14;27.60;;;11.97;;
59998;SDS011;45859;51.378;6.736;2022-12-05T02:42:46;26.20;;;11.30;;
59998;SDS011;45859;51.378;6.736;2022-12-05T02:45:24;26.95;;;11.73;;
59998;SDS011;45859;51.378;6.736;2022-12-05T02:47:53;28.00;;;11.53;;
59998;SDS011;45859;51.378;6.736;2022-12-05T02:50:27;29.43;;;13.27;;
59998;SDS011;45859;51.378;6.736;2022-12-05T02:52:57;24.53;;;10.20;;
59998;SDS011;45859;51.378;6.736;2022-12-05T02:55:27;33.92;;;13.13;;
59998;SDS011;45859;51.378;6.736;2022-12-05T02:57:57;31.67;;;12.77;;
59998;SDS011;45859;51.378;6.736;2022-12-05T03:00:25;22.97;;;11.63;;
59998;SDS011;45859;51.378;6.736;2022-12-05T03:02:52;33.53;;;13.97;;
59998;SDS011;45859;51.378;6.736;2022-12-05T03:05:28;20.77;;;8.70;;
59998;SDS011;45859;51.378;6.736;2022-12-05T03:08:05;31.37;;;13.57;;
59998;SDS011;45859;51.378;6.736;2022-12-05T03:10:35;30.73;;;12.50;;
59998;SDS011;45859;51.378;6.736;2022-12-05T03:13:07;32.13;;;13.63;;
59998;SDS011;45859;51.378;6.736;2022-12-05T03:15:38;31.77;;;12.80;;
59998;SDS011;45859;51.378;6.736;2022-12-05T03:18:10;27.17;;;12.87;;
59998;SDS011;45859;51.378;6.736;2022-12-05T03:20:46;33.33;;;14.17;;
59998;SDS011;45859;51.378;6.736;2022-12-05T03:23:20;41.90;;;16.43;;
59998;SDS011;45859;51.378;6.736;2022-12-05T03:25:53;34.93;;;14.40;;
59998;SDS011;45859;51.378;6.736;2022-12-05T03:31:14;40.03;;;14.87;;
59998;SDS011;45859;51.378;6.736;2022-12-05T03:33:45;37.87;;;15.27;;
59998;SDS011;45859;51.378;6.736;2022-12-05T03:36:16;34.83;;;13.07;;
59998;SDS011;45859;51.378;6.736;2022-12-05T03:38:46;26.08;;;10.77;;
59998;SDS011;45859;51.378;6.736;2022-12-05T03:43:56;40.67;;;15.73;;
59998;SDS011;45859;51.378;6.736;2022-12-05T03:46:31;28.87;;;12.67;;
59998;SDS011;45859;51.378;6.736;2022-12-05T03:49:07;38.90;;;15.73;;
59998;SDS011;45859;51.378;6.736;2022-12-05T03:51:40;35.10;;;14.93;;
59998;SDS011;45859;51.378;6.736;2022-12-05T03:56:53;30.03;;;14.33;;
59998;SDS011;45859;51.378;6.736;2022-12-05T04:02:09;42.90;;;14.57;;
59998;SDS011;45859;51.378;6.736;2022-12-05T04:04:50;36.23;;;14.87;;
59998;SDS011;45859;51.378;6.736;2022-12-05T04:07:38;36.53;;;14.60;;
59998;SDS011;45859;51.378;6.736;2022-12-05T04:10:07;38.40;;;15.07;;
59998;SDS011;45859;51.378;6.736;2022-12-05T04:12:37;39.50;;;13.77;;
59998;SDS011;45859;51.378;6.736;2022-12-05T04:15:09;35.75;;;14.00;;
59998;SDS011;45859;51.378;6.736;2022-12-05T04:17:49;35.70;;;12.57;;
59998;SDS011;45859;51.378;6.736;2022-12-05T04:20:28;41.10;;;15.73;;
59998;SDS011;45859;51.378;6.736;2022-12-05T04:23:20;37.53;;;14.83;;
59998;SDS011;45859;51.378;6.736;2022-12-05T04:28:42;34.03;;;13.23;;
59998;SDS011;45859;51.378;6.736;2022-12-05T04:36:24;26.73;;;11.50;;
59998;SDS011;45859;51.378;6.736;2022-12-05T04:39:06;32.30;;;13.37;;
59998;SDS011;45859;51.378;6.736;2022-12-05T04:41:43;37.53;;;13.70;;
59998;SDS011;45859;51.378;6.736;2022-12-05T04:44:14;30.07;;;11.23;;
59998;SDS011;45859;51.378;6.736;2022-12-05T04:46:43;41.25;;;14.18;;
59998;SDS011;45859;51.378;6.736;2022-12-05T04:49:11;28.97;;;13.20;;
59998;SDS011;45859;51.378;6.736;2022-12-05T04:51:41;40.67;;;14.50;;
59998;SDS011;45859;51.378;6.736;2022-12-05T04:54:14;41.00;;;15.97;;
59998;SDS011;45859;51.378;6.736;2022-12-05T04:57:11;35.43;;;14.60;;
59998;SDS011;45859;51.378;6.736;2022-12-05T04:59:43;31.03;;;12.87;;
59998;SDS011;45859;51.378;6.736;2022-12-05T05:02:09;25.33;;;11.97;;
59998;SDS011;45859;51.378;6.736;2022-12-05T05:04:43;36.43;;;14.43;;
59998;SDS011;45859;51.378;6.736;2022-12-05T05:07:12;32.53;;;13.40;;
59998;SDS011;45859;51.378;6.736;2022-12-05T05:09:38;37.77;;;14.13;;
59998;SDS011;45859;51.378;6.736;2022-12-05T05:12:04;36.23;;;13.47;;
59998;SDS011;45859;51.378;6.736;2022-12-05T05:14:31;32.80;;;13.40;;
59998;SDS011;45859;51.378;6.736;2022-12-05T05:16:57;26.83;;;10.83;;
59998;SDS011;45859;51.378;6.736;2022-12-05T05:19:23;31.30;;;12.17;;
59998;SDS011;45859;51.378;6.736;2022-12-05T05:21:49;35.80;;;14.40;;
59998;SDS011;45859;51.378;6.736;2022-12-05T05:24:16;28.73;;;13.30;;
59998;SDS011;45859;51.378;6.736;2022-12-05T05:26:43;27.87;;;11.57;;
59998;SDS011;45859;51.378;6.736;2022-12-05T05:29:10;33.20;;;13.00;;
59998;SDS011;45859;51.378;6.736;2022-12-05T05:31:36;31.60;;;14.10;;
59998;SDS011;45859;51.378;6.736;2022-12-05T05:34:03;35.07;;;13.13;;
59998;SDS011;45859;51.378;6.736;2022-12-05T05:36:29;28.87;;;13.23;;
59998;SDS011;45859;51.378;6.736;2022-12-05T05:38:56;34.23;;;13.80;;
59998;SDS011;45859;51.378;6.736;2022-12-05T05:41:25;31.13;;;13.33;;
59998;SDS011;45859;51.378;6.736;2022-12-05T05:43:58;29.73;;;13.40;;
59998;SDS011;45859;51.378;6.736;2022-12-05T05:46:27;37.90;;;14.87;;
59998;SDS011;45859;51.378;6.736;2022-12-05T05:48:54;32.10;;;13.45;;
59998;SDS011;45859;51.378;6.736;2022-12-05T05:51:20;32.40;;;13.07;;
59998;SDS011;45859;51.378;6.736;2022-12-05T05:53:49;16.43;;;6.50;;
59998;SDS011;45859;51.378;6.736;2022-12-05T05:56:16;27.67;;;13.03;;
59998;SDS011;45859;51.378;6.736;2022-12-05T05:58:44;31.37;;;13.43;;
59998;SDS011;45859;51.378;6.736;2022-12-05T06:01:17;34.03;;;13.50;;
59998;SDS011;45859;51.378;6.736;2022-12-05T06:03:46;36.20;;;13.70;;
59998;SDS011;45859;51.378;6.736;2022-12-05T06:06:14;37.83;;;13.90;;
59998;SDS011;45859;51.378;6.736;2022-12-05T06:08:41;36.87;;;14.33;;
59998;SDS011;45859;51.378;6.736;2022-12-05T06:11:11;31.90;;;13.73;;
59998;SDS011;45859;51.378;6.736;2022-12-05T06:13:42;32.73;;;13.27;;
59998;SDS011;45859;51.378;6.736;2022-12-05T06:16:08;35.27;;;13.90;;
59998;SDS011;45859;51.378;6.736;2022-12-05T06:18:36;32.43;;;13.70;;
59998;SDS011;45859;51.378;6.736;2022-12-05T06:21:02;39.30;;;14.67;;
59998;SDS011;45859;51.378;6.736;2022-12-05T06:23:30;29.03;;;15.37;;
59998;SDS011;45859;51.378;6.736;2022-12-05T06:25:55;39.57;;;16.30;;
59998;SDS011;45859;51.378;6.736;2022-12-05T06:28:22;35.20;;;13.63;;
59998;SDS011;45859;51.378;6.736;2022-12-05T06:30:49;40.20;;;14.70;;
59998;SDS011;45859;51.378;6.736;2022-12-05T06:33:14;32.33;;;13.50;;
59998;SDS011;45859;51.378;6.736;2022-12-05T06:35:40;35.73;;;13.70;;
59998;SDS011;45859;51.378;6.736;2022-12-05T06:38:07;36.03;;;14.67;;
59998;SDS011;45859;51.378;6.736;2022-12-05T06:40:33;28.83;;;13.70;;
59998;SDS011;45859;51.378;6.736;2022-12-05T06:42:59;35.57;;;14.10;;
59998;SDS011;45859;51.378;6.736;2022-12-05T06:45:24;31.20;;;12.83;;
59998;SDS011;45859;51.378;6.736;2022-12-05T06:47:50;33.87;;;13.13;;
59998;SDS011;45859;51.378;6.736;2022-12-05T06:50:16;32.73;;;13.07;;
59998;SDS011;45859;51.378;6.736;2022-12-05T06:52:42;31.40;;;13.50;;
59998;SDS011;45859;51.378;6.736;2022-12-05T06:55:08;33.87;;;13.73;;
59998;SDS011;45859;51.378;6.736;2022-12-05T06:57:34;30.67;;;12.30;;
59998;SDS011;45859;51.378;6.736;2022-12-05T06:59:59;32.97;;;12.33;;
59998;SDS011;45859;51.378;6.736;2022-12-05T07:02:46;29.50;;;9.93;;
59998;SDS011;45859;51.378;6.736;2022-12-05T07:05:14;35.47;;;13.43;;
59998;SDS011;45859;51.378;6.736;2022-12-05T07:07:40;30.10;;;12.20;;
59998;SDS011;45859;51.378;6.736;2022-12-05T07:10:06;28.77;;;11.90;;
59998;SDS011;45859;51.378;6.736;2022-12-05T07:12:32;25.77;;;11.87;;
59998;SDS011;45859;51.378;6.736;2022-12-05T07:14:58;27.27;;;12.03;;
59998;SDS011;45859;51.378;6.736;2022-12-05T07:17:24;31.10;;;12.37;;
59998;SDS011;45859;51.378;6.736;2022-12-05T07:19:50;29.50;;;11.07;;
59998;SDS011;45859;51.378;6.736;2022-12-05T07:22:16;30.00;;;12.23;;
59998;SDS011;45859;51.378;6.736;2022-12-05T07:24:43;34.60;;;12.50;;
59998;SDS011;45859;51.378;6.736;2022-12-05T07:27:09;26.47;;;12.13;;
59998;SDS011;45859;51.378;6.736;2022-12-05T07:29:35;24.20;;;11.43;;
59998;SDS011;45859;51.378;6.736;2022-12-05T07:32:01;32.07;;;12.40;;
59998;SDS011;45859;51.378;6.736;2022-12-05T07:34:27;29.83;;;11.83;;
59998;SDS011;45859;51.378;6.736;2022-12-05T07:36:52;31.53;;;12.70;;
59998;SDS011;45859;51.378;6.736;2022-12-05T07:39:18;31.53;;;12.50;;
59998;SDS011;45859;51.378;6.736;2022-12-05T07:41:44;26.83;;;12.63;;
59998;SDS011;45859;51.378;6.736;2022-12-05T07:44:10;32.70;;;11.70;;
59998;SDS011;45859;51.378;6.736;2022-12-05T07:46:36;25.80;;;12.80;;
59998;SDS011;45859;51.378;6.736;2022-12-05T07:49:02;22.73;;;10.53;;
59998;SDS011;45859;51.378;6.736;2022-12-05T07:51:27;30.37;;;12.97;;
59998;SDS011;45859;51.378;6.736;2022-12-05T07:53:53;24.33;;;11.07;;
59998;SDS011;45859;51.378;6.736;2022-12-05T07:56:19;18.23;;;8.30;;
59998;SDS011;45859;51.378;6.736;2022-12-05T07:58:46;29.10;;;12.33;;
59998;SDS011;45859;51.378;6.736;2022-12-05T08:01:17;32.03;;;12.30;;
59998;SDS011;45859;51.378;6.736;2022-12-05T08:03:44;26.80;;;10.13;;
59998;SDS011;45859;51.378;6.736;2022-12-05T08:06:12;32.00;;;10.53;;
59998;SDS011;45859;51.378;6.736;2022-12-05T08:08:39;31.13;;;12.80;;
59998;SDS011;45859;51.378;6.736;2022-12-05T08:11:06;28.10;;;11.13;;
59998;SDS011;45859;51.378;6.736;2022-12-05T08:13:32;22.50;;;10.60;;
59998;SDS011;45859;51.378;6.736;2022-12-05T08:16:05;25.60;;;11.67;;
59998;SDS011;45859;51.378;6.736;2022-12-05T08:18:33;23.67;;;10.00;;
59998;SDS011;45859;51.378;6.736;2022-12-05T08:21:13;29.57;;;12.20;;
59998;SDS011;45859;51.378;6.736;2022-12-05T08:23:39;22.45;;;9.75;;
59998;SDS011;45859;51.378;6.736;2022-12-05T08:28:36;24.27;;;9.70;;
59998;SDS011;45859;51.378;6.736;2022-12-05T08:31:06;10.77;;;5.20;;
59998;SDS011;45859;51.378;6.736;2022-12-05T08:33:32;29.52;;;11.63;;
59998;SDS011;45859;51.378;6.736;2022-12-05T08:36:04;23.90;;;10.77;;
59998;SDS011;45859;51.378;6.736;2022-12-05T08:38:32;28.80;;;10.13;;
59998;SDS011;45859;51.378;6.736;2022-12-05T08:41:02;23.13;;;10.80;;
59998;SDS011;45859;51.378;6.736;2022-12-05T08:43:29;23.47;;;10.20;;
59998;SDS011;45859;51.378;6.736;2022-12-05T08:45:56;20.97;;;10.17;;
59998;SDS011;45859;51.378;6.736;2022-12-05T08:48:21;24.43;;;9.13;;
59998;SDS011;45859;51.378;6.736;2022-12-05T08:50:48;21.23;;;9.60;;
59998;SDS011;45859;51.378;6.736;2022-12-05T08:53:14;21.43;;;10.53;;
59998;SDS011;45859;51.378;6.736;2022-12-05T08:55:40;21.77;;;10.80;;
59998;SDS011;45859;51.378;6.736;2022-12-05T08:58:05;25.07;;;10.23;;
59998;SDS011;45859;51.378;6.736;2022-12-05T09:00:31;21.17;;;9.47;;
59998;SDS011;45859;51.378;6.736;2022-12-05T09:02:57;24.60;;;10.20;;
59998;SDS011;45859;51.378;6.736;2022-12-05T09:05:24;21.40;;;10.17;;
59998;SDS011;45859;51.378;6.736;2022-12-05T09:07:50;21.77;;;10.40;;
59998;SDS011;45859;51.378;6.736;2022-12-05T09:10:19;21.17;;;9.50;;
59998;SDS011;45859;51.378;6.736;2022-12-05T09:12:45;16.73;;;6.88;;
59998;SDS011;45859;51.378;6.736;2022-12-05T09:15:11;20.73;;;10.00;;
59998;SDS011;45859;51.378;6.736;2022-12-05T09:17:37;21.07;;;8.67;;
59998;SDS011;45859;51.378;6.736;2022-12-05T09:20:07;16.33;;;8.63;;
59998;SDS011;45859;51.378;6.736;2022-12-05T09:22:33;19.98;;;9.05;;
59998;SDS011;45859;51.378;6.736;2022-12-05T09:24:59;18.07;;;8.30;;
59998;SDS011;45859;51.378;6.736;2022-12-05T09:27:28;18.37;;;9.50;;
59998;SDS011;45859;51.378;6.736;2022-12-05T09:29:54;19.20;;;8.80;;
59998;SDS011;45859;51.378;6.736;2022-12-05T09:32:20;18.63;;;9.00;;
59998;SDS011;45859;51.378;6.736;2022-12-05T09:34:45;15.40;;;5.57;;
59998;SDS011;45859;51.378;6.736;2022-12-05T09:37:11;17.97;;;8.43;;
59998;SDS011;45859;51.378;6.736;2022-12-05T09:39:37;21.80;;;8.67;;
59998;SDS011;45859;51.378;6.736;2022-12-05T09:44:43;25.50;;;10.03;;
59998;SDS011;45859;51.378;6.736;2022-12-05T09:52:46;20.73;;;9.27;;
59998;SDS011;45859;51.378;6.736;2022-12-05T09:55:24;15.97;;;8.50;;
59998;SDS011;45859;51.378;6.736;2022-12-05T09:57:55;16.47;;;8.53;;
59998;SDS011;45859;51.378;6.736;2022-12-05T10:00:25;18.67;;;8.90;;
59998;SDS011;45859;51.378;6.736;2022-12-05T10:11:02;18.30;;;8.70;;
59998;SDS011;45859;51.378;6.736;2022-12-05T10:16:18;16.77;;;8.60;;
59998;SDS011;45859;51.378;6.736;2022-12-05T10:18:56;14.63;;;7.60;;
59998;SDS011;45859;51.378;6.736;2022-12-05T10:21:36;18.90;;;9.23;;
59998;SDS011;45859;51.378;6.736;2022-12-05T10:24:13;18.20;;;9.00;;
59998;SDS011;45859;51.378;6.736;2022-12-05T10:26:48;17.50;;;8.70;;
59998;SDS011;45859;51.378;6.736;2022-12-05T10:29:28;20.47;;;10.00;;
59998;SDS011;45859;51.378;6.736;2022-12-05T10:32:40;18.70;;;9.53;;
59998;SDS011;45859;51.378;6.736;2022-12-05T10:35:16;14.93;;;8.83;;
59998;SDS011;45859;51.378;6.736;2022-12-05T10:37:52;16.53;;;8.27;;
59998;SDS011;45859;51.378;6.736;2022-12-05T10:40:32;19.43;;;9.23;;
59998;SDS011;45859;51.378;6.736;2022-12-05T10:43:00;17.87;;;9.77;;
59998;SDS011;45859;51.378;6.736;2022-12-05T10:45:26;18.73;;;8.73;;
59998;SDS011;45859;51.378;6.736;2022-12-05T10:47:55;17.13;;;8.13;;
59998;SDS011;45859;51.378;6.736;2022-12-05T10:50:27;16.85;;;8.57;;
59998;SDS011;45859;51.378;6.736;2022-12-05T10:52:58;19.47;;;8.20;;
59998;SDS011;45859;51.378;6.736;2022-12-05T10:55:36;16.77;;;8.57;;
59998;SDS011;45859;51.378;6.736;2022-12-05T10:58:15;16.60;;;8.37;;
59998;SDS011;45859;51.378;6.736;2022-12-05T11:00:49;17.10;;;8.20;;
59998;SDS011;45859;51.378;6.736;2022-12-05T11:03:25;19.27;;;8.75;;
59998;SDS011;45859;51.378;6.736;2022-12-05T11:05:55;18.57;;;8.30;;
59998;SDS011;45859;51.378;6.736;2022-12-05T11:08:24;15.53;;;7.30;;
59998;SDS011;45859;51.378;6.736;2022-12-05T11:11:05;21.47;;;10.07;;
59998;SDS011;45859;51.378;6.736;2022-12-05T11:16:30;17.90;;;8.07;;
59998;SDS011;45859;51.378;6.736;2022-12-05T11:21:46;19.00;;;9.70;;
59998;SDS011;45859;51.378;6.736;2022-12-05T11:26:58;21.07;;;11.00;;
59998;SDS011;45859;51.378;6.736;2022-12-05T11:29:43;20.60;;;10.30;;
59998;SDS011;45859;51.378;6.736;2022-12-05T11:32:20;22.73;;;10.43;;
59998;SDS011;45859;51.378;6.736;2022-12-05T11:34:52;25.43;;;11.47;;
59998;SDS011;45859;51.378;6.736;2022-12-05T11:37:57;30.40;;;13.03;;
59998;SDS011;45859;51.378;6.736;2022-12-05T11:40:32;27.93;;;12.13;;
59998;SDS011;45859;51.378;6.736;2022-12-05T11:43:26;29.67;;;12.43;;
59998;SDS011;45859;51.378;6.736;2022-12-05T11:51:38;21.63;;;11.20;;
59998;SDS011;45859;51.378;6.736;2022-12-05T11:54:25;26.53;;;11.93;;
59998;SDS011;45859;51.378;6.736;2022-12-05T11:56:58;28.37;;;11.87;;
59998;SDS011;45859;51.378;6.736;2022-12-05T12:08:23;19.80;;;9.40;;
59998;SDS011;45859;51.378;6.736;2022-12-05T12:19:29;27.40;;;12.63;;
59998;SDS011;45859;51.378;6.736;2022-12-05T12:30:19;20.60;;;10.13;;
59998;SDS011;45859;51.378;6.736;2022-12-05T12:45:50;20.33;;;10.53;;
59998;SDS011;45859;51.378;6.736;2022-12-05T12:48:34;20.53;;;9.73;;
59998;SDS011;45859;51.378;6.736;2022-12-05T12:51:19;24.73;;;11.10;;
59998;SDS011;45859;51.378;6.736;2022-12-05T13:04:31;23.97;;;10.47;;
59998;SDS011;45859;51.378;6.736;2022-12-05T13:09:35;23.60;;;10.65;;
59998;SDS011;45859;51.378;6.736;2022-12-05T13:12:10;24.03;;;10.20;;
59998;SDS011;45859;51.378;6.736;2022-12-05T13:14:41;20.87;;;10.47;;
59998;SDS011;45859;51.378;6.736;2022-12-05T13:17:22;20.73;;;10.53;;
59998;SDS011;45859;51.378;6.736;2022-12-05T13:19:49;22.73;;;10.97;;
59998;SDS011;45859;51.378;6.736;2022-12-05T13:22:20;18.00;;;9.67;;
59998;SDS011;45859;51.378;6.736;2022-12-05T13:24:49;21.73;;;10.23;;
59998;SDS011;45859;51.378;6.736;2022-12-05T13:27:16;20.80;;;10.50;;
59998;SDS011;45859;51.378;6.736;2022-12-05T13:29:56;20.63;;;9.93;;
59998;SDS011;45859;51.378;6.736;2022-12-05T13:34:54;23.70;;;10.90;;
59998;SDS011;45859;51.378;6.736;2022-12-05T13:37:24;18.97;;;9.80;;
59998;SDS011;45859;51.378;6.736;2022-12-05T13:40:23;18.37;;;9.60;;
59998;SDS011;45859;51.378;6.736;2022-12-05T13:43:11;17.47;;;8.80;;
59998;SDS011;45859;51.378;6.736;2022-12-05T13:45:39;19.97;;;9.07;;
59998;SDS011;45859;51.378;6.736;2022-12-05T13:48:25;15.53;;;8.50;;
59998;SDS011;45859;51.378;6.736;2022-12-05T13:56:03;16.63;;;8.23;;
59998;SDS011;45859;51.378;6.736;2022-12-05T14:12:27;18.07;;;9.63;;
59998;SDS011;45859;51.378;6.736;2022-12-05T14:28:43;20.10;;;9.93;;
59998;SDS011;45859;51.378;6.736;2022-12-05T14:31:46;15.87;;;8.60;;
59998;SDS011;45859;51.378;6.736;2022-12-05T14:34:32;17.73;;;9.03;;
59998;SDS011;45859;51.378;6.736;2022-12-05T14:42:34;15.67;;;7.93;;
59998;SDS011;45859;51.378;6.736;2022-12-05T14:47:49;19.27;;;9.20;;
59998;SDS011;45859;51.378;6.736;2022-12-05T14:50:22;19.17;;;9.07;;
59998;SDS011;45859;51.378;6.736;2022-12-05T14:55:51;22.47;;;9.53;;
59998;SDS011;45859;51.378;6.736;2022-12-05T15:00:58;16.43;;;8.90;;
59998;SDS011;45859;51.378;6.736;2022-12-05T15:03:30;18.03;;;8.73;;
59998;SDS011;45859;51.378;6.736;2022-12-05T15:05:59;16.27;;;8.33;;
59998;SDS011;45859;51.378;6.736;2022-12-05T15:08:27;14.33;;;7.33;;
59998;SDS011;45859;51.378;6.736;2022-12-05T15:10:58;19.70;;;9.13;;
59998;SDS011;45859;51.378;6.736;2022-12-05T15:13:25;20.03;;;8.80;;
59998;SDS011;45859;51.378;6.736;2022-12-05T15:16:06;19.73;;;9.90;;
59998;SDS011;45859;51.378;6.736;2022-12-05T15:18:41;19.40;;;9.50;;
59998;SDS011;45859;51.378;6.736;2022-12-05T15:21:17;16.93;;;9.20;;
59998;SDS011;45859;51.378;6.736;2022-12-05T15:23:52;21.37;;;10.37;;
59998;SDS011;45859;51.378;6.736;2022-12-05T15:29:22;15.40;;;8.60;;
59998;SDS011;45859;51.378;6.736;2022-12-05T15:31:54;17.00;;;9.17;;
59998;SDS011;45859;51.378;6.736;2022-12-05T15:40:11;13.77;;;7.30;;
59998;SDS011;45859;51.378;6.736;2022-12-05T15:42:48;18.20;;;9.53;;
59998;SDS011;45859;51.378;6.736;2022-12-05T15:45:20;14.90;;;7.50;;
59998;SDS011;45859;51.378;6.736;2022-12-05T15:47:48;13.73;;;8.10;;
59998;SDS011;45859;51.378;6.736;2022-12-05T16:00:44;13.40;;;8.00;;
59998;SDS011;45859;51.378;6.736;2022-12-05T16:03:15;13.52;;;7.88;;
59998;SDS011;45859;51.378;6.736;2022-12-05T16:05:54;13.63;;;7.10;;
59998;SDS011;45859;51.378;6.736;2022-12-05T16:08:23;13.87;;;7.10;;
59998;SDS011;45859;51.378;6.736;2022-12-05T16:10:54;12.45;;;6.63;;
59998;SDS011;45859;51.378;6.736;2022-12-05T16:13:20;13.17;;;7.13;;
59998;SDS011;45859;51.378;6.736;2022-12-05T16:15:49;13.47;;;6.80;;
59998;SDS011;45859;51.378;6.736;2022-12-05T16:18:26;11.33;;;6.23;;
59998;SDS011;45859;51.378;6.736;2022-12-05T16:20:54;13.47;;;6.57;;
59998;SDS011;45859;51.378;6.736;2022-12-05T16:23:28;14.23;;;7.23;;
59998;SDS011;45859;51.378;6.736;2022-12-05T16:28:37;14.23;;;6.57;;
59998;SDS011;45859;51.378;6.736;2022-12-05T16:31:03;19.97;;;8.80;;
59998;SDS011;45859;51.378;6.736;2022-12-05T16:33:30;16.13;;;8.37;;
59998;SDS011;45859;51.378;6.736;2022-12-05T16:36:09;12.17;;;6.57;;
59998;SDS011;45859;51.378;6.736;2022-12-05T16:38:36;14.73;;;6.95;;
59998;SDS011;45859;51.378;6.736;2022-12-05T16:41:05;18.00;;;8.87;;
59998;SDS011;45859;51.378;6.736;2022-12-05T16:48:39;20.33;;;9.60;;
59998;SDS011;45859;51.378;6.736;2022-12-05T16:51:21;21.60;;;10.80;;
59998;SDS011;45859;51.378;6.736;2022-12-05T16:53:52;19.17;;;9.33;;
59998;SDS011;45859;51.378;6.736;2022-12-05T17:01:20;21.77;;;12.33;;
59998;SDS011;45859;51.378;6.736;2022-12-05T17:03:47;20.90;;;10.23;;
59998;SDS011;45859;51.378;6.736;2022-12-05T17:06:13;21.70;;;10.70;;
59998;SDS011;45859;51.378;6.736;2022-12-05T17:08:40;18.77;;;9.33;;
59998;SDS011;45859;51.378;6.736;2022-12-05T17:11:13;18.33;;;9.43;;
59998;SDS011;45859;51.378;6.736;2022-12-05T17:13:45;18.83;;;9.57;;
59998;SDS011;45859;51.378;6.736;2022-12-05T17:16:13;19.97;;;8.93;;
59998;SDS011;45859;51.378;6.736;2022-12-05T17:18:39;18.70;;;8.87;;
59998;SDS011;45859;51.378;6.736;2022-12-05T17:21:05;22.00;;;9.90;;
59998;SDS011;45859;51.378;6.736;2022-12-05T17:23:31;16.30;;;8.67;;
59998;SDS011;45859;51.378;6.736;2022-12-05T17:25:57;18.43;;;9.50;;
59998;SDS011;45859;51.378;6.736;2022-12-05T17:28:24;17.47;;;9.23;;
59998;SDS011;45859;51.378;6.736;2022-12-05T17:30:50;20.43;;;9.63;;
59998;SDS011;45859;51.378;6.736;2022-12-05T17:33:17;14.20;;;8.47;;
59998;SDS011;45859;51.378;6.736;2022-12-05T17:35:43;19.07;;;10.67;;
59998;SDS011;45859;51.378;6.736;2022-12-05T17:38:09;18.10;;;9.17;;
59998;SDS011;45859;51.378;6.736;2022-12-05T17:40:35;20.57;;;10.00;;
59998;SDS011;45859;51.378;6.736;2022-12-05T17:43:02;22.47;;;10.70;;
59998;SDS011;45859;51.378;6.736;2022-12-05T17:45:29;17.87;;;8.43;;
59998;SDS011;45859;51.378;6.736;2022-12-05T17:47:55;20.90;;;10.47;;
59998;SDS011;45859;51.378;6.736;2022-12-05T17:50:22;21.17;;;10.47;;
59998;SDS011;45859;51.378;6.736;2022-12-05T17:52:49;21.63;;;10.40;;
59998;SDS011;45859;51.378;6.736;2022-12-05T17:55:22;20.20;;;11.00;;
59998;SDS011;45859;51.378;6.736;2022-12-05T17:57:50;16.83;;;8.30;;
59998;SDS011;45859;51.378;6.736;2022-12-05T18:00:16;19.50;;;9.40;;
59998;SDS011;45859;51.378;6.736;2022-12-05T18:02:43;21.93;;;11.07;;
59998;SDS011;45859;51.378;6.736;2022-12-05T18:05:10;26.23;;;12.43;;
59998;SDS011;45859;51.378;6.736;2022-12-05T18:07:38;19.73;;;9.43;;